header
  MetSoc Home            Publications            Contacts  

List of Strewnfield Members

Searching for strewnfield members of Beni M'hira
This meteorite fell in 2001
201 strewnfield members found.
Google Earth Plot in Google Earth

Google Earth no labels Plot in Google Earth with no labels

(Click on a column heading to sort)

Meteorite [mass name] Synonyn Mass Latitude Longitude Class Finder Found Description Main mass loc Type spec mass Type spec loc Approved Ref
Beni M'hira [KG1] 177.9 g 32°46'55"N 10°52'4"E Marie Gerbet 2012-10-23   0000-00-00 Pelé (2013)
Beni M'hira [GK1] 58.3 g 32°47'1"N 10°51'59"E Guillaume Kuntz 2012-10-23   0000-00-00 Pelé (2013)
Beni M'hira [GK2] 138.6 g 32°47'1"N 10°51'59"E Guillaume Kuntz 2012-10-23   0000-00-00 Pelé (2013)
Beni M'hira [PM1] 116.5 g 32°47'10"N 10°52'18"E Pierre-Marie Pelé 2012-10-24 nearly complete   0000-00-00 Pelé (2013)
Beni M'hira [KG2] 241 g 32°47'11"N 10°52'16"E Marie Gerbet 2012-10-24   0000-00-00 Pelé (2013)
Beni M'hira [KG3] 26.4 g 32°47'19"N 10°52'11"E Fabien Kuntz 2012-10-24   0000-00-00 Pelé (2013)
Beni M'hira [PM2] 20.7 g 32°47'17"N 10°52'10"E Pierre-Marie Pelé 2012-10-24 complete   0000-00-00 Pelé (2013)
Beni M'hira [KG4] 206 g 32°46'31"N 10°51'58"E Marie Gerbet 2012-10-24   0000-00-00 Pelé (2013)
Beni M'hira [KG5] 81.1 g 32°47'22"N 10°52'10"E Fabien Kuntz 2012-10-24   0000-00-00 Pelé (2013)
Beni M'hira [KG6] 232 g 32°47'21"N 10°52'11"E Marie Gerbet 2012-10-24   0000-00-00 Pelé (2013)
Beni M'hira [KG7] 190.7 g 32°47'0"N 10°52'15"E Fabien Kuntz 2012-10-24   0000-00-00 Pelé (2013)
Beni M'hira [KG8] 51 g 32°46'58"N 10°52'14"E Fabien Kuntz 2012-10-24   0000-00-00 Pelé (2013)
Beni M'hira [KG9] 94.7 g 32°46'56"N 10°52'13"E Fabien Kuntz 2012-10-24   0000-00-00 Pelé (2013)
Beni M'hira [GK3] 200 g 32°46'50"N 10°52'20"E Guillaume 2012-10-25   0000-00-00 Pelé (2013)
Beni M'hira [KG10] 187.8 g 32°47'14"N 10°52'46"E Fabien Kuntz 2012-10-25   0000-00-00 Pelé (2013)
Beni M'hira [PM4] 65 g 32°47'36"N 10°52'44"E Pierre-Marie Pelé 2012-10-25 half-stone   0000-00-00 Pelé (2013)
Beni M'hira [KG11] 31.1 g 32°47'24"N 10°52'35"E Fabien Kuntz 2012-10-25   0000-00-00 Pelé (2013)
Beni M'hira [PM5] 122.1 g 32°46'52"N 10°52'11"E Pierre-Marie Pelé 2012-10-25 complete   0000-00-00 Pelé (2013)
Beni M'hira [PM6] 111.1 g 32°46'44"N 10°52'15"E Pierre-Marie Pelé 2012-10-25 oriented   0000-00-00 Pelé (2013)
Beni M'hira [PM7] 38.6 g 32°47'14"N 10°52'16"E Pierre-Marie Pelé 2012-10-25 complete   0000-00-00 Pelé (2013)
Beni M'hira [PM8] 82.6 g 32°47'31"N 10°52'16"E Pierre-Marie Pelé 2012-10-25 complete   0000-00-00 Pelé (2013)
Beni M'hira [PM9] 59.4 g 32°47'36"N 10°52'12"E Pierre-Marie Pelé 2012-10-25 complete   0000-00-00 Pelé (2013)
Beni M'hira [KG12] 98.2 g 32°47'21"N 10°52'18"E Fabien Kuntz 2012-10-25   0000-00-00 Pelé (2013)
Beni M'hira [F001] 57.5 g 32°47'45"N 10°51'51"E Fabien Kuntz 2013-05-01 complete   0000-00-00 Pelé (2013)
Beni M'hira [F002] 24.7 g 32°47'46"N 10°51'47"E Fabien Kuntz 2013-05-01 complete   0000-00-00 Pelé (2013)
Beni M'hira [F003] 36.1 g 32°47'52"N 10°52'16"E Fabien Kuntz 2013-05-01 complete   0000-00-00 Pelé (2013)
Beni M'hira [M001] 171.4 g 32°47'20"N 10°51'32"E Marie Gerbet 2013-05-01   0000-00-00 Pelé (2013)
Beni M'hira [M002] 43.3 g 32°47'46"N 10°51'51"E Marie Gerbet 2013-05-01 complete   0000-00-00 Pelé (2013)
Beni M'hira [M003] 44.6 g 32°47'27"N 10°52'16"E Marie Gerbet 2013-05-01 complete   0000-00-00 Pelé (2013)
Beni M'hira [M004] 41.6 g 32°47'20"N 10°52'25"E Marie Gerbet 2013-05-01 complete   0000-00-00 Pelé (2013)
Beni M'hira [P001] 33.6 g 32°47'46"N 10°51'52"E Pierre-Marie Pelé 2013-05-01   0000-00-00 Pelé (2013)
Beni M'hira [P002] 154.6 g 32°46'57"N 10°52'50"E Pierre-Marie Pelé 2013-05-01 complete, in 3 parts   0000-00-00 Pelé (2013)
Beni M'hira [P003] 26.2 g 32°47'33"N 10°52'7"E Pierre-Marie Pelé 2013-06-01 fragment   0000-00-00 Pelé (2013)
Beni M'hira [M005] 29.6 g 32°47'38"N 10°52'7"E Marie Gerbet 2013-07-01 complete   0000-00-00 Pelé (2013)
Beni M'hira [P004] 479 g 32°47'10"N 10°52'2"E Pierre-Marie Pelé 2013-07-01 complete   0000-00-00 Pelé (2013)
Beni M'hira [P005] 304 g 32°46'57"N 10°52'3"E Pierre-Marie Pelé 2013-07-01   0000-00-00 Pelé (2013)
Beni M'hira [P006] 250 g 32°46'59"N 10°52'18"E Pierre-Marie Pelé 2013-07-01 complete   0000-00-00 Pelé (2013)
Beni M'hira [F004] 49.8 g 32°47'15"N 10°52'14"E Fabien Kuntz 2013-08-01 complete   0000-00-00 Pelé (2013)
Beni M'hira [F005] 11.3 g 32°47'30"N 10°51'57"E Fabien Kuntz 2013-08-01 fragment, nice flow lines   0000-00-00 Pelé (2013)
Beni M'hira [F006] 38.2 g 32°47'26"N 10°52'10"E Fabien Kuntz 2013-08-01 complete   0000-00-00 Pelé (2013)
Beni M'hira [M006] 31.4 g 32°47'13"N 10°52'37"E Marie Gerbet 2013-08-01 complete   0000-00-00 Pelé (2013)
Beni M'hira [M007] 113.5 g 32°47'23"N 10°52'13"E Marie Gerbet 2013-08-01 complete   0000-00-00 Pelé (2013)
Beni M'hira [M008] 13.1 g 32°47'19"N 10°52'15"E Marie Gerbet 2013-08-01 complete   0000-00-00 Pelé (2013)
Beni M'hira [M009] 11.8 g 32°47'16"N 10°52'22"E Marie Gerbet 2013-08-01 complete   0000-00-00 Pelé (2013)
Beni M'hira [P007] 62.3 g 32°47'16"N 10°52'24"E Pierre-Marie Pelé 2013-08-01 complete   0000-00-00 Pelé (2013)
Beni M'hira [P008] 82.2 g 32°47'25"N 10°52'3"E Pierre-Marie Pelé 2013-08-01 complete   0000-00-00 Pelé (2013)
Beni M'hira [M010] 246 g 32°46'54"N 10°51'42"E Marie Gerbet 2013-09-01 complete   0000-00-00 Pelé (2013)
Beni M'hira [M011] 30.2 g 32°47'27"N 10°52'1"E Marie Gerbet 2013-09-01 complete   0000-00-00 Pelé (2013)
Beni M'hira [F007] 76.8 g 32°47'0"N 10°53'11"E Fabien Kuntz 2013-10-01 complete   0000-00-00 Pelé (2013)
Beni M'hira [F008] 19.1 g 32°47'26"N 10°53'9"E Fabien Kuntz 2013-10-01 complete   0000-00-00 Pelé (2013)
Beni M'hira [F009] 12.4 g 32°47'17"N 10°53'15"E Fabien Kuntz 2013-10-01 complete   0000-00-00 Pelé (2013)
Beni M'hira [F010] 101.9 g 32°47'17"N 10°53'17"E Fabien Kuntz 2013-10-01 fragment   0000-00-00 Pelé (2013)
Beni M'hira [M012] 105.8 g 32°46'41"N 10°53'6"E Marie Gerbet 2013-10-01 fragment   0000-00-00 Pelé (2013)
Beni M'hira [M013] 51.4 g 32°47'25"N 10°53'9"E Marie Gerbet 2013-10-01 complete   0000-00-00 Pelé (2013)
Beni M'hira [M014] 91.7 g 32°47'24"N 10°53'8"E Marie Gerbet 2013-10-01 fragment   0000-00-00 Pelé (2013)
Beni M'hira [M015] 148.2 g 32°47'23"N 10°52'48"E Marie Gerbet 2013-10-01 complete   0000-00-00 Pelé (2013)
Beni M'hira [M016] 54.5 g 32°46'44"N 10°53'4"E Marie Gerbet 2013-10-01 complete   0000-00-00 Pelé (2013)
Beni M'hira [P009] 27.9 g 32°46'55"N 10°53'11"E Pierre-Marie Pelé 2013-10-01 complete   0000-00-00 Pelé (2013)
Beni M'hira [P010] 132.5 g 32°47'24"N 10°53'15"E Pierre-Marie Pelé 2013-10-01   0000-00-00 Pelé (2013)
Beni M'hira [P011] 15 g 32°47'34"N 10°52'55"E Pierre-Marie Pelé 2013-10-01 complete   0000-00-00 Pelé (2013)
Beni M'hira [P012] 5.7 g 32°47'18"N 10°52'58"E Pierre-Marie Pelé 2013-10-01 complete   0000-00-00 Pelé (2013)
Beni M'hira [P013] 69 g 32°47'20"N 10°53'3"E Pierre-Marie Pelé 2013-10-01 complete   0000-00-00 Pelé (2013)
Beni M'hira [F011] 74.3 g 32°47'30"N 10°52'58"E Fabien Kuntz 2013-11-01 complete   0000-00-00 Pelé (2013)
Beni M'hira [F012] 67 g 32°47'38"N 10°52'46"E Fabien Kuntz 2013-11-01 complete   0000-00-00 Pelé (2013)
Beni M'hira [F013] 41.7 g 32°47'42"N 10°52'40"E Fabien Kuntz 2013-11-01 complete   0000-00-00 Pelé (2013)
Beni M'hira [F014] 22.5 g 32°47'41"N 10°52'30"E Fabien Kuntz 2013-11-01 complete   0000-00-00 Pelé (2013)
Beni M'hira [F015] 28.3 g 32°47'40"N 10°52'39"E Fabien Kuntz 2013-11-01 fragment   0000-00-00 Pelé (2013)
Beni M'hira [F016] 42.3 g 32°47'40"N 10°52'45"E Fabien Kuntz 2013-11-01 complete   0000-00-00 Pelé (2013)
Beni M'hira [F017] 25.7 g 32°47'54"N 10°52'47"E Fabien Kuntz 2013-11-01 complete   0000-00-00 Pelé (2013)
Beni M'hira [F018] 34.9 g 32°47'57"N 10°52'48"E Fabien Kuntz 2013-11-01 complete   0000-00-00 Pelé (2013)
Beni M'hira [F019] 19.9 g 32°47'49"N 10°52'55"E Fabien Kuntz 2013-11-01 complete   0000-00-00 Pelé (2013)
Beni M'hira [F020] 82.5 g 32°47'19"N 10°52'55"E Fabien Kuntz 2013-11-01 complete   0000-00-00 Pelé (2013)
Beni M'hira [F021] 67.6 g 32°47'12"N 10°52'56"E Fabien Kuntz 2013-11-01 several fragments   0000-00-00 Pelé (2013)
Beni M'hira [P014] 32 g 32°47'40"N 10°52'42"E Pierre-Marie Pelé 2013-11-01 complete   0000-00-00 Pelé (2013)
Beni M'hira [P015] 503 g 32°47'40"N 10°52'35"E Pierre-Marie Pelé 2013-11-01 fragment   0000-00-00 Pelé (2013)
Beni M'hira [P016] 45.6 g 32°47'41"N 10°52'47"E Pierre-Marie Pelé 2013-11-01 complete   0000-00-00 Pelé (2013)
Beni M'hira [P017] 25.9 g 32°47'42"N 10°52'47"E Pierre-Marie Pelé 2013-11-01 fragment   0000-00-00 Pelé (2013)
Beni M'hira [P018] 16.4 g 32°47'38"N 10°52'54"E Pierre-Marie Pelé 2013-11-01 complete   0000-00-00 Pelé (2013)
Beni M'hira [P019] 24.6 g 32°47'36"N 10°52'53"E Pierre-Marie Pelé 2013-11-01 complete   0000-00-00 Pelé (2013)
Beni M'hira [P054] 23.5 g 32°46'52"N 10°53'22"E Pierre-Marie Pelé 2013-11-01 IMB, complete   0000-00-00 Pelé (2013)
Beni M'hira [F022] 85.4 g 32°47'35"N 10°52'59"E Fabien Kuntz 2013-12-01 complete   0000-00-00 Pelé (2013)
Beni M'hira [F023] 18 g 32°47'38"N 10°52'46"E Fabien Kuntz 2013-12-01 complete   0000-00-00 Pelé (2013)
Beni M'hira [F024] 36.8 g 32°47'44"N 10°52'45"E Fabien Kuntz 2013-12-01 complete   0000-00-00 Pelé (2013)
Beni M'hira [F025] 43 g 32°47'47"N 10°52'42"E Fabien Kuntz 2013-12-01 complete   0000-00-00 Pelé (2013)
Beni M'hira [F026] 89.6 g 32°47'48"N 10°52'29"E Fabien Kuntz 2013-12-01 complete   0000-00-00 Pelé (2013)
Beni M'hira [F027] 15.4 g 32°47'45"N 10°53'0"E Fabien Kuntz 2013-12-01 complete   0000-00-00 Pelé (2013)
Beni M'hira [F028] 21.6 g 32°47'46"N 10°53'0"E Fabien Kuntz 2013-12-01 complete   0000-00-00 Pelé (2013)
Beni M'hira [F029] 27.2 g 32°47'45"N 10°53'0"E Fabien Kuntz 2013-12-01 complete   0000-00-00 Pelé (2013)
Beni M'hira [F030] 26.1 g 32°47'36"N 10°52'59"E Fabien Kuntz 2013-12-01 fragment   0000-00-00 Pelé (2013)
Beni M'hira [F031] 13.8 g 32°47'38"N 10°53'13"E Fabien Kuntz 2013-12-01 complete   0000-00-00 Pelé (2013)
Beni M'hira [M017] 52.3 g 32°47'38"N 10°52'58"E Marie Gerbet 2013-12-01 complete   0000-00-00 Pelé (2013)
Beni M'hira [M018] 40.5 g 32°47'41"N 10°52'46"E Marie Gerbet 2013-12-01 complete   0000-00-00 Pelé (2013)
Beni M'hira [M019] 50 g 32°47'43"N 10°52'41"E Marie Gerbet 2013-12-01 complete   0000-00-00 Pelé (2013)
Beni M'hira [M020] 74.7 g 32°47'46"N 10°52'42"E Marie Gerbet 2013-12-01 complete   0000-00-00 Pelé (2013)
Beni M'hira [M021] 17.4 g 32°47'53"N 10°53'0"E Marie Gerbet 2013-12-01 complete   0000-00-00 Pelé (2013)
Beni M'hira [M022] 18 g 32°47'36"N 10°53'3"E Marie Gerbet 2013-12-01 complete   0000-00-00 Pelé (2013)
Beni M'hira [M023] 13.7 g 32°47'38"N 10°53'12"E Marie Gerbet 2013-12-01 complete   0000-00-00 Pelé (2013)
Beni M'hira [P020] 42.5 g 32°47'26"N 10°52'56"E Pierre-Marie Pelé 2013-12-01 fragment   0000-00-00 Pelé (2013)
Beni M'hira [P021] 33.3 g 32°47'39"N 10°52'33"E Pierre-Marie Pelé 2013-12-01 complete   0000-00-00 Pelé (2013)
Beni M'hira [P022] 22.1 g 32°47'47"N 10°52'52"E Pierre-Marie Pelé 2013-12-01 complete   0000-00-00 Pelé (2013)
Beni M'hira [P023] 14.9 g 32°47'47"N 10°52'42"E Pierre-Marie Pelé 2013-12-01 complete   0000-00-00 Pelé (2013)
Beni M'hira [P024] 53.8 g 32°47'35"N 10°53'18"E Pierre-Marie Pelé 2013-12-01 complete   0000-00-00 Pelé (2013)
Beni M'hira [P025] 9.4 g 32°47'38"N 10°53'20"E Pierre-Marie Pelé 2013-12-01   0000-00-00 Pelé (2013)
Beni M'hira [M024] 44.4 g 32°47'41"N 10°52'2"E Marie Gerbet 2013-01-13   0000-00-00 Pelé (2013)
Beni M'hira [F032] 64.2 g 32°47'50"N 10°52'14"E Fabien Kuntz 2013-01-14 complete   0000-00-00 Pelé (2013)
Beni M'hira [F033] 34.3 g 32°47'37"N 10°52'32"E Fabien Kuntz 2013-01-14 IMB, complete   0000-00-00 Pelé (2013)
Beni M'hira [F034] 47.4 g 32°47'40"N 10°25'48"E Fabien Kuntz 2013-01-14 complete   0000-00-00 Pelé (2013)
Beni M'hira [F035] 23.9 g 32°47'38"N 10°52'53"E Fabien Kuntz 2013-01-14 complete   0000-00-00 Pelé (2013)
Beni M'hira [F036] 39.2 g 32°47'30"N 10°53'18"E Fabien Kuntz 2013-01-14 complete   0000-00-00 Pelé (2013)
Beni M'hira [F037] 95.8 g 32°47'33"N 10°53'18"E Fabien Kuntz 2013-01-14   0000-00-00 Pelé (2013)
Beni M'hira [F038] 50.5 g 32°47'47"N 10°53'23"E Fabien Kuntz 2013-01-14 complete   0000-00-00 Pelé (2013)
Beni M'hira [P026] 29.2 g 32°47'53"N 10°52'13"E Pierre-Marie Pelé 2013-01-14 complete   0000-00-00 Pelé (2013)
Beni M'hira [P027] 37.4 g 32°47'39"N 10°52'24"E Pierre-Marie Pelé 2013-01-14 complete   0000-00-00 Pelé (2013)
Beni M'hira [P028] 173.5 g 32°47'39"N 10°52'49"E Pierre-Marie Pelé 2013-01-14 complete   0000-00-00 Pelé (2013)
Beni M'hira [P029] 21.1 g 32°47'35"N 10°53'8"E Pierre-Marie Pelé 2013-01-14 complete   0000-00-00 Pelé (2013)
Beni M'hira [P030] 56.1 g 32°47'36"N 10°53'9"E Pierre-Marie Pelé 2013-01-14   0000-00-00 Pelé (2013)
Beni M'hira [P031] 67.8 g 32°47'33"N 10°53'17"E Pierre-Marie Pelé 2013-01-14 complete   0000-00-00 Pelé (2013)
Beni M'hira [P032] 53.4 g 32°47'34"N 10°53'21"E Pierre-Marie Pelé 2013-01-14 complete   0000-00-00 Pelé (2013)
Beni M'hira [P033] 60.1 g 32°47'52"N 10°53'17"E Pierre-Marie Pelé 2013-01-14 complete   0000-00-00 Pelé (2013)
Beni M'hira [P034] 14.3 g 32°47'50"N 10°52'23"E Pierre-Marie Pelé 2013-01-14 fragment   0000-00-00 Pelé (2013)
Beni M'hira [F039] 17 g 32°47'58"N 10°53'11"E Fabien Kuntz 2013-05-01 fragment   0000-00-00 Pelé (2013)
Beni M'hira [F040] 23.6 g 32°47'47"N 10°53'15"E Fabien Kuntz 2013-05-01 fragment   0000-00-00 Pelé (2013)
Beni M'hira [M026] 14.6 g 32°48'12"N 10°53'2"E Marie Gerbet 2013-05-01 complete   0000-00-00 Pelé (2013)
Beni M'hira [P035] 67.4 g 32°47'11"N 10°53'29"E Pierre-Marie Pelé 2013-05-01 complete   0000-00-00 Pelé (2013)
Beni M'hira [P036] 42.1 g 32°47'12"N 10°53'26"E Pierre-Marie Pelé 2013-05-01 complete   0000-00-00 Pelé (2013)
Beni M'hira [P037] 105.2 g 32°47'50"N 10°53'30"E Pierre-Marie Pelé 2013-05-01 oriented   0000-00-00 Pelé (2013)
Beni M'hira [P038] 7.9 g 32°48'4"N 10°53'39"E Pierre-Marie Pelé 2013-05-01   0000-00-00 Pelé (2013)
Beni M'hira [P039] 51.5 g 32°48'11"N 10°53'29"E Pierre-Marie Pelé 2013-05-01 complete   0000-00-00 Pelé (2013)
Beni M'hira [P040] 21.8 g 32°47'47"N 10°53'9"E Pierre-Marie Pelé 2013-05-01 complete   0000-00-00 Pelé (2013)
Beni M'hira [P041] 70 g 32°47'47"N 10°53'7"E Pierre-Marie Pelé 2013-05-01 complete   0000-00-00 Pelé (2013)
Beni M'hira [P042] 27.1 g 32°47'55"N 10°53'15"E Pierre-Marie Pelé 2013-05-01 complete   0000-00-00 Pelé (2013)
Beni M'hira [P043] 8.1 g 32°47'55"N 10°53'15"E Pierre-Marie Pelé 2013-05-01 IMB   0000-00-00 Pelé (2013)
Beni M'hira [P044] 54.9 g 32°47'34"N 10°53'27"E Pierre-Marie Pelé 2013-05-01 endcut   0000-00-00 Pelé (2013)
Beni M'hira [F041] 21.1 g 32°47'52"N 10°53'8"E Fabien Kuntz 2013-01-16 complete   0000-00-00 Pelé (2013)
Beni M'hira [F042] 12.8 g 32°48'5"N 10°53'20"E Fabien Kuntz 2013-01-16 complete   0000-00-00 Pelé (2013)
Beni M'hira [F043] 37.2 g 32°47'53"N 10°53'19"E Fabien Kuntz 2013-01-16 complete   0000-00-00 Pelé (2013)
Beni M'hira [P045] 58.4 g 32°47'53"N 10°51'59"E Pierre-Marie Pelé 2013-01-16 complete   0000-00-00 Pelé (2013)
Beni M'hira [P046] 42.5 g 32°47'51"N 10°52'25"E Pierre-Marie Pelé 2013-01-16 complete   0000-00-00 Pelé (2013)
Beni M'hira [P047] 19.1 g 32°47'55"N 10°53'9"E Pierre-Marie Pelé 2013-01-16 complete   0000-00-00 Pelé (2013)
Beni M'hira [P048] 70.9 g 32°48'0"N 10°53'17"E Pierre-Marie Pelé 2013-01-16 complete   0000-00-00 Pelé (2013)
Beni M'hira [P049] 19.5 g 32°48'2"N 10°53'21"E Pierre-Marie Pelé 2013-01-16 complete   0000-00-00 Pelé (2013)
Beni M'hira [P050] 209 g 32°48'2"N 10°53'18"E Pierre-Marie Pelé 2013-01-16 complete   0000-00-00 Pelé (2013)
Beni M'hira [P051] 8.8 g 32°47'52"N 10°53'21"E Pierre-Marie Pelé 2013-01-16 complete   0000-00-00 Pelé (2013)
Beni M'hira [P052] 9.4 g 32°48'2"N 10°53'10"E Pierre-Marie Pelé 2013-01-16 complete   0000-00-00 Pelé (2013)
Beni M'hira [MM01] 29.7 g 32°47'23"N 10°53'5"E Marie Gerbet 2013-06-26 complete   0000-00-00 Pelé (2013)
Beni M'hira [PP01] 49.5 g 32°46'31"N 10°52'24"E Pierre-Marie Pelé 2013-06-26 complete   0000-00-00 Pelé (2013)
Beni M'hira [PP02] 40.8 g 32°46'59"N 10°52'52"E Pierre-Marie Pelé 2013-06-26 IMB, complete   0000-00-00 Pelé (2013)
Beni M'hira [MM02] 107 g 32°47'20"N 10°52'20"E Marie Gerbet 2013-06-27 complete   0000-00-00 Pelé (2013)
Beni M'hira [PP03] 8.8 g 32°47'47"N 10°52'25"E Pierre-Marie Pelé 2013-06-27 complete   0000-00-00 Pelé (2013)
Beni M'hira [PP04] 41.4 g 32°47'38"N 10°52'23"E Pierre-Marie Pelé 2013-06-27 complete   0000-00-00 Pelé (2013)
Beni M'hira [PP05] 99.5 g 32°47'35"N 10°52'22"E Pierre-Marie Pelé 2013-06-27 complete   0000-00-00 Pelé (2013)
Beni M'hira [PP06] 104 g 32°47'35"N 10°52'22"E Pierre-Marie Pelé 2013-06-27 complete   0000-00-00 Pelé (2013)
Beni M'hira [PP07] 34 g 32°47'25"N 10°52'21"E Pierre-Marie Pelé 2013-06-27 complete   0000-00-00 Pelé (2013)
Beni M'hira [PP08] 53.5 g 32°47'12"N 10°52'17"E Pierre-Marie Pelé 2013-06-27 complete   0000-00-00 Pelé (2013)
Beni M'hira [PP09] 69 g 32°47'0"N 10°52'16"E Pierre-Marie Pelé 2013-06-27 complete   0000-00-00 Pelé (2013)
Beni M'hira [FF01] 61.8 g 32°47'25"N 10°51'57"E Fabien Kuntz 2013-06-28 complete   0000-00-00 Pelé (2013)
Beni M'hira [FF02] 110.3 g 32°47'31"N 10°53'1"E Fabien Kuntz 2013-06-28 complete   0000-00-00 Pelé (2013)
Beni M'hira [FF03] 98.2 g 32°47'11"N 10°52'4"E Fabien Kuntz 2013-06-28 complete   0000-00-00 Pelé (2013)
Beni M'hira [MM03] 42.8 g 32°47'32"N 10°52'10"E Marie Gerbet 2013-06-28 complete   0000-00-00 Pelé (2013)
Beni M'hira [MM04] 33 g 32°47'37"N 10°52'39"E Marie Gerbet 2013-06-28 complete   0000-00-00 Pelé (2013)
Beni M'hira [MM05] 12.2 g 32°47'36"N 10°52'45"E Marie Gerbet 2013-06-28 complete   0000-00-00 Pelé (2013)
Beni M'hira [MM06] 20.4 g 32°47'21"N 10°53'4"E Marie Gerbet 2013-06-28 complete   0000-00-00 Pelé (2013)
Beni M'hira [MM07] 83.6 g 32°47'10"N 10°52'10"E Marie Gerbet 2013-06-28 complete   0000-00-00 Pelé (2013)
Beni M'hira [MM08] 56.3 g 32°47'21"N 10°51'19"E Marie Gerbet 2013-06-28 complete   0000-00-00 Pelé (2013)
Beni M'hira [PP10] 128.5 g 32°47'23"N 10°51'53"E Pierre-Marie Pelé 2013-06-28 complete   0000-00-00 Pelé (2013)
Beni M'hira [PP11] 24.7 g 32°47'41"N 10°52'12"E Pierre-Marie Pelé 2013-06-28 complete   0000-00-00 Pelé (2013)
Beni M'hira [PP12] 20.2 g 32°47'40"N 10°52'15"E Pierre-Marie Pelé 2013-06-28 complete   0000-00-00 Pelé (2013)
Beni M'hira [PP13] 35.8 g 32°47'43"N 10°52'19"E Pierre-Marie Pelé 2013-06-28 complete   0000-00-00 Pelé (2013)
Beni M'hira [PP14] 20.5 g 32°47'42"N 10°52'35"E Pierre-Marie Pelé 2013-06-28 fragment   0000-00-00 Pelé (2013)
Beni M'hira [PP15] 14.2 g 32°47'37"N 10°52'46"E Pierre-Marie Pelé 2013-06-28 complete   0000-00-00 Pelé (2013)
Beni M'hira [PP16] 13.3 g 32°47'36"N 10°52'55"E Pierre-Marie Pelé 2013-06-28 complete   0000-00-00 Pelé (2013)
Beni M'hira [PP17] 53.4 g 32°47'16"N 10°53'1"E Pierre-Marie Pelé 2013-06-28 complete   0000-00-00 Pelé (2013)
Beni M'hira [PP18] 201 g 32°47'9"N 10°52'18"E Pierre-Marie Pelé 2013-06-28 complete   0000-00-00 Pelé (2013)
Beni M'hira [PP19] 100.6 g 32°47'19"N 10°51'25"E Pierre-Marie Pelé 2013-06-28 complete   0000-00-00 Pelé (2013)
Beni M'hira [FF04] 18.9 g 32°47'28"N 10°51'37"E Fabien Kuntz 2013-06-29 complete   0000-00-00 Pelé (2013)
Beni M'hira [FF05] 14.5 g 32°47'42"N 10°51'40"E Fabien Kuntz 2013-06-29 complete   0000-00-00 Pelé (2013)
Beni M'hira [PP20] 27.4 g 32°47'31"N 10°51'38"E Pierre-Marie Pelé 2013-06-29 IMB, complete   0000-00-00 Pelé (2013)
Beni M'hira [PP21] 87.6 g 32°47'35"N 10°51'38"E Pierre-Marie Pelé 2013-06-29 oriented, in 3 parts   0000-00-00 Pelé (2013)
Beni M'hira [PP22] 31.2 g 32°47'43"N 10°51'57"E Pierre-Marie Pelé 2013-06-29 complete   0000-00-00 Pelé (2013)
Beni M'hira [PP23] 6 g 32°47'32"N 10°52'7"E Pierre-Marie Pelé 2013-06-29 oriented, complete   0000-00-00 Pelé (2013)
Beni M'hira [PP24] 27.7 g 32°47'37"N 10°51'30"E Pierre-Marie Pelé 2013-06-29 complete   0000-00-00 Pelé (2013)
Beni M'hira [FF06] 112.3 g 32°47'7"N 10°52'4"E Fabien Kuntz 2013-01-07 complete   0000-00-00 Pelé (2013)
Beni M'hira [FFMM] 24.5 g 32°47'4"N 10°52'40"E Marie Gerbet 2013-01-07   0000-00-00 Pelé (2013)
Beni M'hira [MM09] 37.2 g 32°46'56"N 10°52'5"E Marie Gerbet 2013-01-07 complete   0000-00-00 Pelé (2013)
Beni M'hira [PP25] 71.6 g 32°47'4"N 10°52'40"E Pierre-Marie Pelé 2013-01-07 fragment   0000-00-00 Pelé (2013)
Beni M'hira [PP26] 123.6 g 32°47'11"N 10°52'12"E Pierre-Marie Pelé 2013-01-07 fragment   0000-00-00 Pelé (2013)
Beni M'hira [MM10] 43.9 g 32°47'17"N 10°51'25"E Marie Gerbet 2013-03-07 complete   0000-00-00 Pelé (2013)
Beni M'hira [MM11] 45.9 g 32°47'18"N 10°51'2"E Marie Gerbet 2013-03-07   0000-00-00 Pelé (2013)
Beni M'hira [PP27] 269 g 32°47'13"N 10°51'2"E Pierre-Marie Pelé 2013-03-07 fragment   0000-00-00 Pelé (2013)
Beni M'hira [PMP03] 3.24 g 32°47'26"N 10°51'28"E Pierre-Marie Pelé 2013-01-12 fragment   0000-00-00 Pelé (2013)
Beni M'hira [PMP01] 21.2 g 32°47'32"N 10°51'56"E Pierre-Marie Pelé 2013-01-12 complète   0000-00-00 Pelé (2013)
Beni M'hira [PMP02] 73.6 g 32°47'30"N 10°51'45"E Pierre-Marie Pelé 2013-01-12 complète   0000-00-00 Pelé (2013)
Beni M'hira [FK01] 19 g 32°47'30"N 10°51'44"E Fabien Kuntz 2013-01-12 complète   0000-00-00 Pelé (2013)
Beni M'hira [FK02] 55.4 g 32°47'13"N 10°51'56"E Fabien Kuntz 2013-01-12 complète   0000-00-00 Pelé (2013)
Beni M'hira [MK01] 61.6 g 32°47'22"N 10°51'42"E Marie Gerbet 2013-01-12 complète   0000-00-00 Pelé (2013)
Beni M'hira [PMP05] 12 g 32°47'28"N 10°52'50"E Pierre-Marie Pelé 2013-06-12 complète   0000-00-00 Pelé (2013)
Beni M'hira [PMP06] 205 g 32°47'14"N 10°52'5"E Pierre-Marie Pelé 2013-06-12 complète   0000-00-00 Pelé (2013)
Beni M'hira [PM2018-1] 10.2 g 32°57'13"N 10°29'1"E Pierre-Marie Pelé 2018-03-06 complète   0000-00-00 Pelé (2013)
Beni M'hira [PM2018-2] 19.5 g 32°57'13"N 10°28'59"E Pierre-Marie Pelé 2018-03-06 complète   0000-00-00 Pelé (2013)
Beni M'hira [PM2018-3] 11.5 g 32°57'12"N 10°28'56"E Pierre-Marie Pelé 2018-03-06 complète   0000-00-00 Pelé (2013)
Beni M'hira [PM2018-4] 12.5 g 32°57'13"N 10°28'55"E Pierre-Marie Pelé 2018-03-06 complète   0000-00-00 Pelé (2013)
Bibliography: